Terminal Aerodrome Forecast
Issued by NWS Wakefield, VA

Home | Current Version | Previous Version | Text Only | Print | Product List | Glossary On
Versions: 1 2 3 4 5 6 7 8 9 10 11 12 13 14 15 16 17 18 19 20 21 22 23 24
000
FTUS41 KAKQ 011140
TAFECG
TAF
KECG 011140Z 0112/0212 17005KT P6SM SCT015 BKN100
      TEMPO 0112/0115 3SM SHRA BR BKN015
     FM011500 18005KT P6SM SCT015 BKN050
     FM011900 17008KT P6SM BKN050
     FM012300 VRB03KT P6SM SCT120
     FM020800 00000KT 4SM BR SCT250=

USA.gov is the U.S. government's official web portal to all federal, state and local government web resources and services.